• Join FlightAware (Why Join?)
  • Login
  • US Flag 
Gobble Gobble! 
06:40PM EST


 

Airport Tracker/Info


-or-


 

Live Flight TrackerFlight Track Log ✈ EJA982 ✈ 26-Jul-2013 ✈ KBJI - KMSP

Flight Track Log - Related Links

Times and Time Zones

All times are in EDT time to prevent confusion due to time zone crossing. See the EJA982 flight status page for this flight to view local times or setup timezone preferences in your user account.

Time Position Orientation Groundspeed Altitude Reporting Facility
EDT Latitude Longitude Course Direction KTS MPH feet Rate Location/Type
03:34PM 47.0806 -94.6418 152° Southeast  Level Estimated
03:35PM 46.9945 -94.5838 153° Southeast  Level Estimated
03:36PM 46.9084 -94.5260 153° Southeast  Level Estimated
03:36PM 47.5186 -94.9975 154° Southeast 265 305 4,200  Level Minneapolis Center
03:37PM 46.8222 -94.4683 154° Southeast  Level Estimated
03:37PM 47.4478 -95.0125 188° South 308 354 8,300  Level Minneapolis Center
03:38PM 46.7565 -94.3685 134° Southeast  Level FlightAware Approximate
03:38PM 47.3836 -94.9058 132° Southeast 308 354 13,000  Level Minneapolis Center
03:39PM 46.6697 -94.3135 146° Southeast  Level Estimated
03:39PM 47.2867 -94.8222 150° Southeast 335 386 17,600  Level Minneapolis Center
03:40PM 46.5827 -94.2586 151° Southeast  Level Estimated
03:40PM 47.1997 -94.7439 149° Southeast 356 410 20,000  Level Minneapolis Center
03:41PM 46.4958 -94.2039 154° Southeast  Level Estimated
03:41PM 47.0956 -94.6569 150° Southeast 405 466 21,000  Level Minneapolis Center
03:43PM 46.9550 -94.5361 150° Southeast 472 543 21,000  Level Minneapolis Center
03:44PM 46.8103 -94.4147 150° Southeast 488 562 21,000  Level Minneapolis Center
03:45PM 46.6892 -94.3117 150° Southeast 500 575 21,000  Level Minneapolis Center
03:46PM 46.5706 -94.2111 150° Southeast 500 575 21,000  Level Minneapolis Center
03:47PM 46.4536 -94.1164 151° Southeast 491 565 21,000  Level Minneapolis Center
03:48PM 46.3347 -94.0211 151° Southeast 492 566 21,000  Level Minneapolis Center
03:49PM 46.1797 -93.9356 159° South 490 564 21,000  Level Minneapolis Center
03:50PM 46.0533 -93.8667 159° South 488 562 21,000  Level Minneapolis Center
03:51PM 45.9267 -93.7978 159° South 488 562 21,000  Level Minneapolis Center
03:52PM 45.8000 -93.7267 159° South 490 564 21,000  Level Minneapolis Center
03:53PM 45.6733 -93.6569 159° South 489 563 21,000 -840 Level Minneapolis Center
03:54PM 45.5464 -93.5889 159° South 489 563 19,300 -2,340 Descending Minneapolis Center
03:55PM 45.3983 -93.5083 159° South 476 548 16,200 -2,460 Descending Minneapolis Center
03:56PM 45.2803 -93.4450 159° South 452 520 13,800 -2,280 Descending Minneapolis Center
03:57PM 45.1467 -93.3739 159° South 428 493 11,100 -1,440 Descending Minneapolis Center
03:58PM 45.0431 -93.3178 159° South 400 460 10,900 -240 Descending Minneapolis Center
03:59PM 44.9775 -93.2219 134° Southeast 342 394 10,700 -1,140 Descending Minneapolis Center
04:00PM 44.9400 -93.1119 116° Southeast 306 352 8,600 -2,940 Descending Minneapolis Center
04:01PM 44.8981 -92.9847 115° Southeast 296 341 4,700 -2,700 Descending Minneapolis Center
04:02PM 44.8244 -92.9717 173° South 261 300 3,100 -840 Descending Minneapolis Center
04:03PM 44.8056 -93.0500 251° West 224 258 3,000 -420 Descending Minneapolis Center
04:04PM 44.8356 -93.1142 303° West 199 229 2,300 -720 Descending Minneapolis Center
04:05PM 44.8547 -93.1572 302° West 128 147 1,600 -720 Descending Minneapolis Center
04:08PM 44.8667 -93.2167 180° South  Level FlightAware Approximate
04:15PM 44.8820 -93.2218 180° South  Level Estimated